createdAt,value
2018-06-28T00:00:40.027Z,0.53
2018-06-28T00:03:07.723Z,0.82
2018-06-28T00:05:35.438Z,0.68
2018-06-28T00:08:03.087Z,0.80
2018-06-28T00:10:30.766Z,0.75
2018-06-28T00:12:58.475Z,0.60
2018-06-28T00:15:26.078Z,0.75
2018-06-28T00:17:53.819Z,0.70
2018-06-28T00:20:21.519Z,0.60
2018-06-28T00:22:49.066Z,0.55
2018-06-28T00:25:16.674Z,0.50
2018-06-28T00:27:44.190Z,0.50
2018-06-28T00:30:11.895Z,0.62
2018-06-28T00:32:39.680Z,0.65
2018-06-28T00:35:07.148Z,0.78
2018-06-28T00:37:34.695Z,0.78
2018-06-28T00:40:02.720Z,0.62
2018-06-28T00:42:30.275Z,0.72
2018-06-28T00:44:58.033Z,1.25
2018-06-28T00:47:25.722Z,0.53
2018-06-28T00:49:53.247Z,0.53
2018-06-28T00:52:21.018Z,0.80
2018-06-28T00:54:48.707Z,0.45
2018-06-28T00:57:16.299Z,0.60
2018-06-28T00:59:44.000Z,0.65
2018-06-28T01:02:11.734Z,0.80
2018-06-28T01:04:39.279Z,1.15
2018-06-28T01:07:06.837Z,0.82
2018-06-28T01:09:34.375Z,0.80
2018-06-28T01:12:02.121Z,0.80
2018-06-28T01:14:29.783Z,0.82
2018-06-28T01:16:57.327Z,0.85
2018-06-28T01:19:24.882Z,0.62
2018-06-28T01:21:52.424Z,0.90
2018-06-28T01:24:20.131Z,0.90
2018-06-28T01:26:47.943Z,0.90
2018-06-28T01:29:15.470Z,1.15
2018-06-28T01:31:43.207Z,0.90
2018-06-28T01:34:10.885Z,0.70
2018-06-28T01:36:38.485Z,0.98
2018-06-28T01:39:07.254Z,1.00
2018-06-28T01:41:40.474Z,1.05
2018-06-28T01:44:08.031Z,1.00
2018-06-28T01:46:35.570Z,1.00
2018-06-28T01:49:03.336Z,1.50
2018-06-28T01:51:30.988Z,0.75
2018-06-28T01:53:58.530Z,1.15
2018-06-28T01:56:26.079Z,0.68
2018-06-28T01:58:53.614Z,1.10
2018-06-28T02:01:21.166Z,1.20
2018-06-28T02:03:48.677Z,0.82
2018-06-28T02:06:16.388Z,1.05
2018-06-28T02:08:44.085Z,1.07
2018-06-28T02:11:11.683Z,1.02
2018-06-28T02:13:39.401Z,1.07
2018-06-28T02:16:07.103Z,1.25
2018-06-28T02:18:34.663Z,0.95
2018-06-28T02:21:02.225Z,1.00
2018-06-28T02:23:30.112Z,1.02
2018-06-28T02:25:57.707Z,1.10
2018-06-28T02:28:25.242Z,0.80
2018-06-28T02:30:52.794Z,1.47
2018-06-28T02:33:20.484Z,1.30
2018-06-28T02:35:48.229Z,1.35
2018-06-28T02:38:15.766Z,1.17
2018-06-28T02:40:43.340Z,1.10
2018-06-28T02:43:10.867Z,0.80
2018-06-28T02:45:38.596Z,1.10
2018-06-28T02:48:06.290Z,1.45
2018-06-28T02:50:33.846Z,1.20
2018-06-28T02:53:01.430Z,1.25
2018-06-28T02:55:28.951Z,1.30
2018-06-28T02:57:56.656Z,1.10
2018-06-28T03:00:24.431Z,0.90
2018-06-28T03:02:52.001Z,1.07
2018-06-28T03:05:19.703Z,1.32
2018-06-28T03:07:47.456Z,1.15
2018-06-28T03:10:15.011Z,1.37
2018-06-28T03:12:42.685Z,1.02
2018-06-28T03:15:10.426Z,1.42
2018-06-28T03:17:37.947Z,1.12
2018-06-28T03:20:05.546Z,1.40
2018-06-28T03:22:33.059Z,1.40
2018-06-28T03:25:00.791Z,1.47
2018-06-28T03:27:28.494Z,1.60
2018-06-28T03:29:56.093Z,1.62
2018-06-28T03:32:23.823Z,1.20
2018-06-28T03:34:51.534Z,1.37
2018-06-28T03:37:19.060Z,1.12
2018-06-28T03:39:46.658Z,1.80
2018-06-28T03:42:14.146Z,1.07
2018-06-28T03:44:41.678Z,1.07
2018-06-28T03:47:09.225Z,1.00
2018-06-28T03:49:36.999Z,1.40
2018-06-28T03:52:04.700Z,1.10
2018-06-28T03:54:32.304Z,2.05
2018-06-28T03:57:00.710Z,1.30
2018-06-28T03:59:28.328Z,1.37
2018-06-28T04:01:56.012Z,1.40
2018-06-28T04:04:23.723Z,1.85
2018-06-28T04:06:51.382Z,1.10
2018-06-28T04:09:18.859Z,1.27
2018-06-28T04:11:46.339Z,1.32
2018-06-28T04:14:13.851Z,1.40
2018-06-28T04:16:41.374Z,1.25
2018-06-28T04:19:08.920Z,1.62
2018-06-28T04:21:36.407Z,1.17
2018-06-28T04:24:04.167Z,1.67
2018-06-28T04:26:31.830Z,1.52
2018-06-28T04:28:59.402Z,1.82
2018-06-28T04:31:26.960Z,1.95
2018-06-28T04:33:54.450Z,1.77
2018-06-28T04:36:22.922Z,1.17
2018-06-28T04:38:50.490Z,1.45
2018-06-28T04:41:18.046Z,1.32
2018-06-28T04:43:46.039Z,1.20
2018-06-28T04:46:14.061Z,1.10
2018-06-28T04:48:42.093Z,0.90
2018-06-28T04:51:10.128Z,1.20
2018-06-28T04:53:38.118Z,1.40
2018-06-28T04:56:06.133Z,1.25
2018-06-28T04:58:33.602Z,1.37
2018-06-28T05:01:01.325Z,1.37
2018-06-28T05:03:29.051Z,1.30
2018-06-28T05:05:56.583Z,1.30
2018-06-28T05:08:24.148Z,1.52
2018-06-28T05:10:51.678Z,1.22
2018-06-28T05:13:19.418Z,1.65
2018-06-28T05:15:47.170Z,1.47
2018-06-28T05:18:14.731Z,1.32
2018-06-28T05:20:42.715Z,1.40
2018-06-28T05:23:10.263Z,1.20
2018-06-28T05:25:37.748Z,1.22
2018-06-28T05:28:05.460Z,1.10
2018-06-28T05:30:33.202Z,1.35
2018-06-28T05:33:00.819Z,1.30
2018-06-28T05:35:28.521Z,1.07
2018-06-28T05:37:56.240Z,1.52
2018-06-28T05:40:24.868Z,1.30
2018-06-28T05:42:52.550Z,1.25
2018-06-28T05:45:20.267Z,1.27
2018-06-28T05:47:47.831Z,1.05
2018-06-28T05:50:15.395Z,1.37
2018-06-28T05:52:42.890Z,1.62
2018-06-28T05:55:10.610Z,1.30
2018-06-28T05:57:38.319Z,1.22
2018-06-28T06:00:05.950Z,1.30
2018-06-28T06:02:33.638Z,1.57
2018-06-28T06:05:01.442Z,1.67
2018-06-28T06:07:29.013Z,1.25
2018-06-28T06:09:56.670Z,1.32
2018-06-28T06:12:24.419Z,1.27
2018-06-28T06:14:51.961Z,0.80
2018-06-28T06:17:19.527Z,1.50
2018-06-28T06:19:47.031Z,1.22
2018-06-28T06:22:14.758Z,1.45
2018-06-28T06:24:42.504Z,1.20
2018-06-28T06:27:10.819Z,1.20
2018-06-28T06:29:38.519Z,1.32
2018-06-28T06:32:06.133Z,1.65
2018-06-28T06:34:33.659Z,1.40
2018-06-28T06:37:01.150Z,1.77
2018-06-28T06:39:28.879Z,1.80
2018-06-28T06:41:56.571Z,1.22
2018-06-28T06:44:24.090Z,1.40
2018-06-28T06:46:51.883Z,1.50
2018-06-28T06:49:19.586Z,1.40
2018-06-28T06:51:47.186Z,1.77
2018-06-28T06:54:14.690Z,1.62
2018-06-28T06:56:42.210Z,1.45
2018-06-28T06:59:09.722Z,1.30
2018-06-28T07:01:37.239Z,1.47
2018-06-28T07:04:04.943Z,1.50
2018-06-28T07:06:32.672Z,1.47
2018-06-28T07:09:00.224Z,1.50
2018-06-28T07:11:27.783Z,1.27
2018-06-28T07:13:55.328Z,1.50
2018-06-28T07:16:23.067Z,1.62
2018-06-28T07:18:50.757Z,1.25
2018-06-28T07:21:18.355Z,1.50
2018-06-28T07:23:46.043Z,1.37
2018-06-28T07:26:13.758Z,1.70
2018-06-28T07:28:41.378Z,1.40
2018-06-28T07:31:09.307Z,1.60
2018-06-28T07:33:36.888Z,1.47
2018-06-28T07:36:04.461Z,1.65
2018-06-28T07:38:31.990Z,1.32
2018-06-28T07:40:59.466Z,1.55
2018-06-28T07:43:27.192Z,1.72
2018-06-28T07:45:54.911Z,1.30
2018-06-28T07:48:22.585Z,1.50
2018-06-28T07:50:50.215Z,1.42
2018-06-28T07:53:17.922Z,1.50
2018-06-28T07:55:45.462Z,1.20
2018-06-28T07:58:13.034Z,1.15
2018-06-28T08:00:40.560Z,1.65
2018-06-28T08:03:08.241Z,1.67
2018-06-28T08:05:35.686Z,1.50
2018-06-28T08:08:03.273Z,1.30
2018-06-28T08:10:30.983Z,1.27
2018-06-28T08:12:58.582Z,1.47
2018-06-28T08:15:26.122Z,1.57
2018-06-28T08:17:53.630Z,1.20
2018-06-28T08:20:21.344Z,1.50
2018-06-28T08:22:48.960Z,1.37
2018-06-28T08:25:16.642Z,1.40
2018-06-28T08:27:44.219Z,1.30
2018-06-28T08:30:12.549Z,1.45
2018-06-28T08:32:40.178Z,1.22
2018-06-28T08:35:07.792Z,1.40
2018-06-28T08:37:36.540Z,1.40
2018-06-28T08:40:04.235Z,1.37
2018-06-28T08:42:32.194Z,1.15
2018-06-28T08:44:59.831Z,1.35
2018-06-28T08:47:27.491Z,1.57
2018-06-28T08:49:55.291Z,1.20
2018-06-28T08:52:22.819Z,1.25
2018-06-28T08:54:50.333Z,1.55
2018-06-28T08:57:17.871Z,1.57
2018-06-28T08:59:45.579Z,1.57
2018-06-28T09:02:13.290Z,1.30
2018-06-28T09:04:40.848Z,1.60
2018-06-28T09:07:08.358Z,1.50
2018-06-28T09:09:35.882Z,1.10
2018-06-28T09:12:03.411Z,1.22
2018-06-28T09:14:30.898Z,1.42
2018-06-28T09:16:58.402Z,1.60
2018-06-28T09:19:25.955Z,1.45
2018-06-28T09:21:53.635Z,1.20
2018-06-28T09:24:21.355Z,1.40
2018-06-28T09:26:48.952Z,1.50
2018-06-28T09:29:16.442Z,1.50
2018-06-28T09:31:43.959Z,1.90
2018-06-28T09:34:11.527Z,1.62
2018-06-28T09:36:39.001Z,1.30
2018-06-28T09:39:07.335Z,1.70
2018-06-28T09:41:34.982Z,1.77
2018-06-28T09:44:02.567Z,1.37
2018-06-28T09:46:30.067Z,1.72
2018-06-28T09:48:57.778Z,1.77
2018-06-28T09:51:25.498Z,1.72
2018-06-28T09:53:53.120Z,1.77
2018-06-28T09:56:20.794Z,1.92
2018-06-28T09:58:48.452Z,1.72
2018-06-28T10:01:16.097Z,1.62
2018-06-28T10:03:43.654Z,1.70
2018-06-28T10:06:11.158Z,1.67
2018-06-28T10:08:38.704Z,1.92
2018-06-28T10:11:06.254Z,1.45
2018-06-28T10:13:33.907Z,1.37
2018-06-28T10:16:01.625Z,1.37
2018-06-28T10:18:29.153Z,1.30
2018-06-28T10:20:56.711Z,1.30
2018-06-28T10:23:24.251Z,1.65
2018-06-28T10:25:51.951Z,1.72
2018-06-28T10:28:19.766Z,1.57
2018-06-28T10:30:47.259Z,1.40
2018-06-28T10:33:14.775Z,1.50
2018-06-28T10:35:42.301Z,1.60
2018-06-28T10:38:10.036Z,1.42
2018-06-28T10:40:37.734Z,1.65
2018-06-28T10:43:05.329Z,1.70
2018-06-28T10:45:32.853Z,1.32
2018-06-28T10:48:00.351Z,1.42
2018-06-28T10:50:27.928Z,1.50
2018-06-28T10:52:55.398Z,1.47
2018-06-28T10:55:23.098Z,1.17
2018-06-28T10:57:50.817Z,1.27
2018-06-28T11:00:18.378Z,1.17
2018-06-28T11:02:45.919Z,1.40
2018-06-28T11:05:13.449Z,1.80
2018-06-28T11:07:40.968Z,1.65
2018-06-28T11:10:08.497Z,1.42
2018-06-28T11:12:36.194Z,1.07
2018-06-28T11:15:04.448Z,1.15
2018-06-28T11:17:31.988Z,1.40
2018-06-28T11:19:59.547Z,1.40
2018-06-28T11:22:27.254Z,1.60
2018-06-28T11:24:54.961Z,1.50
2018-06-28T11:27:22.479Z,1.47
2018-06-28T11:29:50.313Z,1.10
2018-06-28T11:32:17.982Z,1.42
2018-06-28T11:34:45.969Z,1.30
2018-06-28T11:37:13.607Z,1.70
2018-06-28T11:39:41.129Z,1.10
2018-06-28T11:42:08.629Z,1.22
2018-06-28T11:44:36.330Z,1.45
2018-06-28T11:47:04.066Z,1.50
2018-06-28T11:49:31.607Z,1.12
2018-06-28T11:51:59.191Z,1.40
2018-06-28T11:54:27.055Z,1.50
2018-06-28T11:56:55.556Z,1.80
2018-06-28T11:59:23.183Z,1.20
2018-06-28T12:01:51.147Z,1.32
2018-06-28T12:04:18.689Z,1.37
2018-06-28T12:06:46.339Z,1.22
2018-06-28T12:09:13.775Z,1.50
2018-06-28T12:11:41.754Z,1.00
2018-06-28T12:14:10.099Z,1.02
2018-06-28T12:16:38.834Z,1.40
2018-06-28T12:19:06.523Z,1.05
2018-06-28T12:21:34.256Z,1.45
2018-06-28T12:24:01.907Z,0.80
2018-06-28T12:26:29.558Z,1.00
2018-06-28T12:28:57.721Z,1.10
2018-06-28T12:31:25.364Z,1.42
2018-06-28T12:33:52.882Z,1.52
2018-06-28T12:36:20.379Z,1.35
2018-06-28T12:38:48.034Z,1.20
2018-06-28T12:41:16.437Z,1.00
2018-06-28T12:43:43.938Z,1.57
2018-06-28T12:46:11.481Z,1.40
2018-06-28T12:48:38.980Z,1.37
2018-06-28T12:51:06.703Z,1.90
2018-06-28T12:53:34.893Z,1.47
2018-06-28T12:56:20.826Z,1.57
2018-06-28T12:58:49.703Z,1.47
2018-06-28T13:01:17.426Z,1.37
2018-06-28T13:03:44.978Z,1.40
2018-06-28T13:06:12.522Z,1.65
2018-06-28T13:08:40.040Z,1.27
2018-06-28T13:11:07.780Z,1.32
2018-06-28T13:13:35.867Z,1.52
2018-06-28T13:16:03.554Z,1.15
2018-06-28T13:18:31.247Z,1.30
2018-06-28T13:20:59.047Z,0.57
2018-06-28T13:23:26.672Z,0.98
2018-06-28T13:25:54.140Z,0.85
2018-06-28T13:28:21.634Z,0.85
2018-06-28T13:30:49.168Z,1.20
2018-06-28T13:33:16.688Z,1.02
2018-06-28T13:35:44.202Z,0.90
2018-06-28T13:38:11.744Z,0.90
2018-06-28T13:40:39.228Z,0.80
2018-06-28T13:43:06.976Z,0.57
2018-06-28T13:45:34.666Z,0.88
2018-06-28T13:48:02.186Z,1.07
2018-06-28T13:50:29.734Z,0.70
2018-06-28T13:52:57.274Z,1.02
2018-06-28T13:55:24.807Z,0.88
2018-06-28T13:57:52.266Z,0.90
2018-06-28T14:00:20.619Z,0.80
2018-06-28T14:02:48.379Z,0.80
2018-06-28T14:05:16.136Z,0.72
2018-06-28T14:07:43.798Z,0.88
2018-06-28T14:10:11.330Z,0.75
2018-06-28T14:12:38.847Z,0.80
2018-06-28T14:15:06.793Z,0.82
2018-06-28T14:17:35.146Z,0.80
2018-06-28T14:20:03.121Z,0.47
2018-06-28T14:22:30.807Z,1.10
2018-06-28T14:24:58.460Z,0.80
2018-06-28T14:27:26.138Z,0.90
2018-06-28T14:29:53.879Z,0.85
2018-06-28T14:32:21.372Z,0.95
2018-06-28T14:34:48.950Z,0.90
2018-06-28T14:37:16.495Z,0.90
2018-06-28T14:39:44.247Z,1.45
2018-06-28T14:42:12.387Z,1.02
2018-06-28T14:44:40.008Z,1.05
2018-06-28T14:47:07.609Z,1.02
2018-06-28T14:49:35.099Z,0.80
2018-06-28T14:52:02.567Z,1.22
2018-06-28T14:54:30.060Z,0.90
2018-06-28T14:56:57.684Z,1.30
2018-06-28T14:59:26.402Z,1.05
2018-06-28T15:01:54.142Z,1.12
2018-06-28T15:04:23.043Z,1.00
2018-06-28T15:06:51.097Z,1.50
2018-06-28T15:09:18.690Z,0.90
2018-06-28T15:11:46.415Z,1.15
2018-06-28T15:14:15.355Z,1.25
2018-06-28T15:16:43.084Z,0.93
2018-06-28T15:19:10.622Z,1.10
2018-06-28T15:21:38.496Z,1.20
2018-06-28T15:24:06.124Z,1.00
2018-06-28T15:26:33.645Z,1.32
2018-06-28T15:29:02.478Z,1.50
2018-06-28T15:31:30.204Z,1.10
2018-06-28T15:33:57.758Z,1.20
2018-06-28T15:36:25.474Z,1.17
2018-06-28T15:38:53.271Z,1.30
2018-06-28T15:41:20.794Z,1.20
2018-06-28T15:43:49.591Z,1.45
2018-06-28T15:46:17.323Z,1.20
2018-06-28T15:48:45.294Z,1.32
2018-06-28T15:51:13.937Z,1.50
2018-06-28T15:53:41.764Z,1.22
2018-06-28T15:56:09.433Z,1.30
2018-06-28T15:58:36.923Z,1.50
2018-06-28T16:01:04.723Z,1.10
2018-06-28T16:03:32.558Z,1.27
2018-06-28T16:06:00.387Z,1.20
2018-06-28T16:08:28.288Z,1.10
2018-06-28T16:10:56.022Z,1.17
2018-06-28T16:13:23.691Z,1.00
2018-06-28T16:15:51.433Z,1.12
2018-06-28T16:18:19.051Z,1.55
2018-06-28T16:20:46.711Z,1.37
2018-06-28T16:23:14.430Z,1.25
2018-06-28T16:25:41.971Z,1.27
2018-06-28T16:28:09.536Z,1.20
2018-06-28T16:30:37.068Z,1.25
2018-06-28T16:33:04.756Z,1.30
2018-06-28T16:35:32.495Z,1.10
2018-06-28T16:38:00.161Z,1.40
2018-06-28T16:40:27.862Z,1.00
2018-06-28T16:42:55.933Z,1.30
2018-06-28T16:45:23.855Z,1.30
2018-06-28T16:47:51.558Z,1.10
2018-06-28T16:50:19.091Z,1.15
2018-06-28T16:52:46.668Z,1.27
2018-06-28T16:55:14.342Z,1.10
2018-06-28T16:57:42.179Z,1.40
2018-06-28T17:00:09.728Z,1.40
2018-06-28T17:02:37.262Z,1.02
2018-06-28T17:05:04.962Z,1.65
2018-06-28T17:07:32.810Z,1.20
2018-06-28T17:10:00.306Z,0.90
2018-06-28T17:12:28.024Z,1.45
2018-06-28T17:14:55.804Z,1.22
2018-06-28T17:17:23.341Z,1.27
2018-06-28T17:19:51.046Z,1.17
2018-06-28T17:22:18.919Z,1.05
2018-06-28T17:24:46.427Z,1.30
2018-06-28T17:27:14.094Z,1.17
2018-06-28T17:29:41.886Z,1.12
2018-06-28T17:32:09.663Z,1.15
2018-06-28T17:34:37.436Z,1.20
2018-06-28T17:37:05.227Z,1.32
2018-06-28T17:39:32.929Z,1.30
2018-06-28T17:42:00.473Z,1.10
2018-06-28T17:44:28.243Z,1.40
2018-06-28T17:46:55.995Z,1.37
2018-06-28T17:49:23.486Z,0.70
2018-06-28T17:51:51.353Z,1.25
2018-06-28T17:54:19.001Z,1.60
2018-06-28T17:56:46.564Z,1.02
2018-06-28T17:59:14.362Z,1.02
2018-06-28T18:01:42.331Z,1.35
2018-06-28T18:04:10.113Z,1.00
2018-06-28T18:06:37.684Z,1.10
2018-06-28T18:09:07.373Z,1.57
2018-06-28T18:11:35.415Z,1.35
2018-06-28T18:14:03.101Z,1.27
2018-06-28T18:16:30.777Z,1.40
2018-06-28T18:18:58.487Z,0.93
2018-06-28T18:21:26.213Z,1.10
2018-06-28T18:23:53.869Z,1.22
2018-06-28T18:26:21.774Z,1.35
2018-06-28T18:28:49.786Z,1.47
2018-06-28T18:31:17.726Z,1.37
2018-06-28T18:33:45.534Z,1.02
2018-06-28T18:36:13.360Z,1.12
2018-06-28T18:38:41.264Z,1.15
2018-06-28T18:41:09.353Z,1.40
2018-06-28T18:43:37.424Z,1.07
2018-06-28T18:46:05.348Z,1.65
2018-06-28T18:48:32.984Z,1.20
2018-06-28T18:51:01.316Z,1.22
2018-06-28T18:53:29.375Z,0.98
2018-06-28T18:55:57.275Z,1.35
2018-06-28T18:58:24.971Z,2.40
2018-06-28T19:00:52.941Z,2.45
2018-06-28T19:03:20.742Z,2.10
2018-06-28T19:05:48.438Z,1.42
2018-06-28T19:08:15.996Z,1.15
2018-06-28T19:10:49.386Z,1.12
2018-06-28T19:13:17.046Z,1.55
2018-06-28T19:15:51.322Z,1.72
2018-06-28T19:18:19.159Z,1.37
2018-06-28T19:20:52.495Z,1.15
2018-06-28T19:23:25.599Z,1.47
2018-06-28T19:25:53.570Z,1.72
2018-06-28T19:28:21.119Z,1.20
2018-06-28T19:30:54.370Z,1.50
2018-06-28T19:33:22.162Z,1.52
2018-06-28T19:35:49.923Z,1.52
2018-06-28T19:38:17.643Z,1.20
2018-06-28T19:40:50.664Z,1.37
2018-06-28T19:43:18.589Z,1.60
2018-06-28T19:45:46.202Z,1.50
2018-06-28T19:48:14.057Z,1.77
2018-06-28T19:50:47.388Z,1.80
2018-06-28T19:53:16.574Z,1.40
2018-06-28T19:55:45.658Z,1.52
2018-06-28T19:58:13.582Z,1.37
2018-06-28T20:00:47.065Z,1.57
2018-06-28T20:03:20.240Z,1.30
2018-06-28T20:05:48.786Z,1.77
2018-06-28T20:08:16.404Z,1.22
2018-06-28T20:10:44.122Z,1.40
2018-06-28T20:13:18.239Z,1.37
2018-06-28T20:15:53.091Z,1.27
2018-06-28T20:18:26.228Z,1.30
2018-06-28T20:20:55.164Z,1.57
2018-06-28T20:23:22.877Z,1.40
2018-06-28T20:25:50.932Z,1.17
2018-06-28T20:28:24.158Z,1.47
2018-06-28T20:30:57.338Z,0.95
2018-06-28T20:34:29.589Z,1.40
2018-06-28T20:36:57.309Z,1.30
2018-06-28T20:39:25.083Z,1.70
2018-06-28T20:41:52.597Z,1.55
2018-06-28T20:44:20.301Z,1.25
2018-06-28T20:46:48.266Z,1.30
2018-06-28T20:49:15.633Z,1.70
2018-06-28T20:51:43.453Z,1.07
2018-06-28T20:54:11.483Z,1.25
2018-06-28T20:56:39.090Z,1.52
2018-06-28T20:59:06.640Z,1.65
2018-06-28T21:01:34.658Z,1.35
2018-06-28T21:04:02.439Z,1.22
2018-06-28T21:06:30.152Z,1.35
2018-06-28T21:08:57.746Z,1.40
2018-06-28T21:11:25.732Z,1.10
2018-06-28T21:13:54.382Z,1.12
2018-06-28T21:16:22.176Z,1.22
2018-06-28T21:18:50.164Z,1.47
2018-06-28T21:21:17.760Z,1.60
2018-06-28T21:23:45.446Z,1.30
2018-06-28T21:26:13.155Z,1.60
2018-06-28T21:28:44.726Z,1.50
2018-06-28T21:31:12.608Z,1.45
2018-06-28T21:33:40.319Z,1.30
2018-06-28T21:36:07.840Z,1.10
2018-06-28T21:38:35.491Z,1.35
2018-06-28T21:41:03.793Z,1.62
2018-06-28T21:43:31.925Z,1.35
2018-06-28T21:46:00.676Z,1.60
2018-06-28T21:48:28.688Z,1.22
2018-06-28T21:50:56.387Z,1.55
2018-06-28T21:53:23.894Z,1.20
2018-06-28T21:55:52.062Z,1.62
2018-06-28T21:58:19.997Z,1.27
2018-06-28T22:00:47.713Z,1.30
2018-06-28T22:03:15.759Z,1.72
2018-06-28T22:05:44.481Z,1.40
2018-06-28T22:08:12.172Z,1.62
2018-06-28T22:10:40.072Z,1.82
2018-06-28T22:13:07.920Z,1.55
2018-06-28T22:15:35.841Z,1.87
2018-06-28T22:18:04.547Z,1.47
2018-06-28T22:20:32.926Z,1.57
2018-06-28T22:23:00.550Z,1.55
2018-06-28T22:25:29.568Z,1.20
2018-06-28T22:27:57.490Z,1.40
2018-06-28T22:30:25.074Z,1.50
2018-06-28T22:32:52.882Z,1.40
2018-06-28T22:35:21.644Z,1.65
2018-06-28T22:37:49.642Z,1.20
2018-06-28T22:40:17.503Z,1.80
2018-06-28T22:42:45.132Z,1.90
2018-06-28T22:45:12.902Z,1.57
2018-06-28T22:47:40.575Z,2.00
2018-06-28T22:50:08.208Z,2.08
2018-06-28T22:52:35.938Z,2.17
2018-06-28T22:55:03.967Z,1.92
2018-06-28T22:57:31.695Z,2.02
2018-06-28T22:59:59.278Z,2.20
2018-06-28T23:02:26.955Z,1.50
2018-06-28T23:04:55.212Z,1.90
2018-06-28T23:07:23.604Z,1.57
2018-06-28T23:09:51.759Z,1.90
2018-06-28T23:12:20.085Z,1.82
2018-06-28T23:14:47.808Z,1.45
2018-06-28T23:17:15.363Z,1.47
2018-06-28T23:19:43.035Z,1.98
2018-06-28T23:22:16.331Z,1.82
2018-06-28T23:24:44.147Z,2.00
2018-06-28T23:27:11.846Z,1.60
2018-06-28T23:29:39.410Z,1.55
2018-06-28T23:32:07.318Z,1.75
2018-06-28T23:34:34.919Z,1.77
2018-06-28T23:37:02.426Z,1.70
2018-06-28T23:39:30.160Z,1.57
2018-06-28T23:41:57.853Z,1.85
2018-06-28T23:44:25.499Z,1.77
2018-06-28T23:46:53.161Z,1.80
2018-06-28T23:49:20.947Z,1.92
2018-06-28T23:51:48.498Z,1.50
2018-06-28T23:54:16.231Z,1.50
2018-06-28T23:56:43.942Z,1.92
2018-06-28T23:59:11.589Z,1.90
